createdAt,value
2023-03-31T00:13:50.333Z,0.0000
2023-03-31T00:14:51.748Z,0.0000
2023-03-31T00:15:53.995Z,0.0000
2023-03-31T00:16:53.068Z,0.0000
2023-03-31T00:20:58.212Z,0.0000
2023-03-31T00:21:58.398Z,0.0000
2023-03-31T00:26:03.504Z,0.0000
2023-03-31T00:27:04.083Z,0.0000
2023-03-31T00:28:05.376Z,0.0000
2023-03-31T00:29:06.627Z,0.0000
2023-03-31T00:30:07.839Z,0.0000
2023-03-31T00:31:09.080Z,0.0000
2023-03-31T00:32:10.250Z,0.0000
2023-03-31T00:33:11.553Z,0.0000
2023-03-31T00:34:12.886Z,0.0000
2023-03-31T00:35:14.309Z,0.0000
2023-03-31T00:36:15.687Z,0.0000
2023-03-31T00:37:16.787Z,0.0000
2023-03-31T00:38:17.918Z,0.0000
2023-03-31T00:39:19.012Z,0.0000
2023-03-31T00:40:20.252Z,0.0000
2023-03-31T00:41:21.457Z,0.0000
2023-03-31T00:42:22.599Z,0.0000
2023-03-31T00:43:23.797Z,0.0000
2023-03-31T00:44:25.089Z,0.0000
2023-03-31T00:45:26.260Z,0.0000
2023-03-31T00:46:27.502Z,0.0000
2023-03-31T00:47:27.529Z,0.0000
2023-03-31T00:48:28.876Z,0.0000
2023-03-31T00:49:30.144Z,0.0000
2023-03-31T00:50:31.307Z,0.0000
2023-03-31T00:51:32.557Z,0.0000
2023-03-31T00:52:33.918Z,0.0000
2023-03-31T01:16:56.504Z,0.0000
2023-03-31T01:17:56.709Z,0.0000
2023-03-31T01:18:56.687Z,0.0000
2023-03-31T01:19:57.958Z,0.0000
2023-03-31T01:20:59.255Z,0.0000
2023-03-31T01:22:00.352Z,0.0000
2023-03-31T01:23:01.586Z,0.0000
2023-03-31T01:24:02.836Z,0.0000
2023-03-31T01:25:03.914Z,0.0000
2023-03-31T01:26:05.365Z,0.0000
2023-03-31T01:27:05.355Z,0.0000
2023-03-31T01:28:06.357Z,0.0000
2023-03-31T01:29:07.591Z,0.0000
2023-03-31T01:30:08.661Z,0.0000
2023-03-31T01:31:10.040Z,0.0000
2023-03-31T01:32:11.407Z,0.0000
2023-03-31T01:33:12.964Z,0.0000
2023-03-31T01:34:13.282Z,0.0000
2023-03-31T01:35:13.345Z,0.0000
2023-03-31T01:36:13.436Z,0.0000
2023-03-31T01:37:14.790Z,0.0000
2023-03-31T01:38:16.111Z,0.0000
2023-03-31T01:39:17.007Z,0.0000
2023-03-31T01:40:18.342Z,0.0000
2023-03-31T01:41:19.520Z,0.0000
2023-03-31T01:42:20.712Z,0.0000
2023-03-31T01:43:22.086Z,0.0000
2023-03-31T01:44:21.940Z,0.0000
2023-03-31T01:45:22.952Z,0.0000
2023-03-31T01:46:23.074Z,0.0000
2023-03-31T02:03:41.053Z,0.0000
2023-03-31T02:20:55.014Z,0.0000
2023-03-31T02:21:56.243Z,0.0000
2023-03-31T02:22:57.389Z,0.0000
2023-03-31T02:23:58.629Z,0.0000
2023-03-31T02:24:59.889Z,0.0000
2023-03-31T02:26:01.279Z,0.0000
2023-03-31T02:27:02.350Z,0.0000
2023-03-31T02:28:03.614Z,0.0000
2023-03-31T02:29:04.926Z,0.0000
2023-03-31T02:30:06.253Z,0.0000
2023-03-31T02:31:06.435Z,0.0000
2023-03-31T02:32:06.588Z,0.0000
2023-03-31T02:33:07.756Z,0.0000
2023-03-31T02:34:09.004Z,0.0000
2023-03-31T02:35:10.169Z,0.0000
2023-03-31T02:36:11.128Z,0.0000
2023-03-31T02:39:12.903Z,0.0000
2023-03-31T02:40:14.075Z,0.0000
2023-03-31T02:41:15.395Z,0.0000
2023-03-31T02:42:16.528Z,0.0000
2023-03-31T02:43:17.741Z,0.0000
2023-03-31T02:44:18.876Z,0.0000
2023-03-31T02:45:20.057Z,0.0000
2023-03-31T02:46:20.212Z,0.0000
2023-03-31T02:47:21.715Z,0.0000
2023-03-31T02:48:21.780Z,0.0000
2023-03-31T02:49:21.718Z,0.0000
2023-03-31T02:50:22.776Z,0.0000
2023-03-31T02:51:24.041Z,0.0000
2023-03-31T02:52:25.214Z,0.0000
2023-03-31T02:53:26.328Z,0.0000
2023-03-31T02:54:27.566Z,0.0000
2023-03-31T02:55:27.864Z,0.0000
2023-03-31T02:56:27.928Z,0.0000
2023-03-31T02:57:29.420Z,0.0000
2023-03-31T02:58:30.155Z,0.0000
2023-03-31T02:59:31.269Z,0.0000
2023-03-31T03:00:32.615Z,0.0000
2023-03-31T03:01:33.944Z,0.0000
2023-03-31T03:02:35.304Z,0.0000
2023-03-31T03:03:36.782Z,0.0000
2023-03-31T03:04:36.679Z,0.0000
2023-03-31T03:05:37.959Z,0.0000
2023-03-31T03:06:39.321Z,0.0000
2023-03-31T03:07:40.324Z,0.0000
2023-03-31T03:08:41.452Z,0.0000
2023-03-31T03:09:42.731Z,0.0000
2023-03-31T03:10:43.852Z,0.0000
2023-03-31T03:11:45.102Z,0.0000
2023-03-31T03:12:46.549Z,0.0000
2023-03-31T03:13:47.692Z,0.0000
2023-03-31T03:14:48.759Z,0.0000
2023-03-31T03:15:49.896Z,0.0000
2023-03-31T03:16:51.194Z,0.0000
2023-03-31T03:17:52.425Z,0.0000
2023-03-31T03:18:53.646Z,0.0000
2023-03-31T03:19:54.887Z,0.0000
2023-03-31T03:20:56.246Z,0.0000
2023-03-31T03:21:57.387Z,0.0000
2023-03-31T03:22:58.764Z,0.0000
2023-03-31T03:24:00.096Z,0.0000
2023-03-31T03:25:01.384Z,0.0000
2023-03-31T03:26:02.456Z,0.0000
2023-03-31T03:27:03.916Z,0.0000
2023-03-31T03:28:04.965Z,0.0000
2023-03-31T03:29:05.224Z,0.0000
2023-03-31T03:30:05.594Z,0.0000
2023-03-31T03:31:05.663Z,0.0000
2023-03-31T03:32:06.828Z,0.0000
2023-03-31T03:33:06.796Z,0.0000
2023-03-31T03:34:08.203Z,0.0000
2023-03-31T03:35:09.664Z,0.0000
2023-03-31T03:36:11.038Z,0.0000
2023-03-31T03:37:12.239Z,0.0000
2023-03-31T03:38:13.662Z,0.0000
2023-03-31T03:39:15.062Z,0.0000
2023-03-31T03:43:17.654Z,0.0000
2023-03-31T03:44:19.076Z,0.0000
2023-03-31T03:45:20.585Z,0.0000
2023-03-31T03:46:21.781Z,0.0000
2023-03-31T03:47:22.127Z,0.0000
2023-03-31T03:48:22.525Z,0.0000
2023-03-31T03:49:23.760Z,0.0000
2023-03-31T03:50:23.683Z,0.0000
2023-03-31T03:51:25.029Z,0.0000
2023-03-31T03:52:25.123Z,0.0000
2023-03-31T03:53:26.431Z,0.0000
2023-03-31T03:54:27.522Z,0.0000
2023-03-31T03:55:28.713Z,0.0000
2023-03-31T03:56:28.781Z,0.0000
2023-03-31T03:57:30.125Z,0.0000
2023-03-31T03:58:31.491Z,0.0000
2023-03-31T03:59:32.914Z,0.0000
2023-03-31T04:00:34.236Z,0.0000
2023-03-31T04:01:34.226Z,0.0000
2023-03-31T04:02:35.634Z,0.0000
2023-03-31T04:03:35.951Z,0.0000
2023-03-31T04:04:37.300Z,0.0000
2023-03-31T04:05:37.702Z,0.0000
2023-03-31T04:06:39.105Z,0.0000
2023-03-31T04:07:40.226Z,0.0000
2023-03-31T04:10:42.262Z,0.0000
2023-03-31T04:11:43.257Z,0.0000
2023-03-31T04:20:42.645Z,0.0000
2023-03-31T04:20:42.645Z,0.0000
2023-03-31T04:20:44.969Z,0.0000
2023-03-31T04:21:44.834Z,0.0000
2023-03-31T04:23:01.144Z,0.0000
2023-03-31T04:24:02.523Z,0.0000
2023-03-31T04:25:02.892Z,0.0000
2023-03-31T04:26:02.830Z,0.0000
2023-03-31T04:27:03.362Z,0.0000
2023-03-31T04:28:03.698Z,0.0000
2023-03-31T04:41:15.970Z,3.0000
2023-03-31T04:42:16.180Z,1.7750
2023-03-31T04:43:17.261Z,0.0976
2023-03-31T04:44:18.565Z,0.8293
2023-03-31T04:46:20.392Z,1.2250
2023-03-31T04:55:30.530Z,9.2195
2023-03-31T04:56:31.776Z,6.6098
2023-03-31T04:57:31.989Z,13.1750
2023-03-31T04:58:33.172Z,27.4634
2023-03-31T04:59:34.357Z,31.2439
2023-03-31T05:00:35.620Z,28.3415
2023-03-31T05:01:36.845Z,49.3902
2023-03-31T05:02:36.944Z,49.9750
2023-03-31T05:03:37.400Z,50.7500
2023-03-31T05:04:38.617Z,45.0732
2023-03-31T05:05:39.908Z,67.0732
2023-03-31T05:06:41.093Z,76.4146
2023-03-31T05:07:42.282Z,106.0000
2023-03-31T05:08:43.642Z,110.4146
2023-03-31T05:09:44.824Z,97.8049
2023-03-31T05:10:46.040Z,82.8781
2023-03-31T05:11:47.397Z,88.2927
2023-03-31T05:12:48.613Z,82.3659
2023-03-31T05:13:49.663Z,90.7317
2023-03-31T05:14:50.999Z,91.3902
2023-03-31T05:15:52.352Z,90.0732
2023-03-31T05:16:53.725Z,79.9756
2023-03-31T05:17:54.961Z,82.2195
2023-03-31T05:18:56.204Z,106.1463
2023-03-31T05:19:57.473Z,113.1219
2023-03-31T05:20:58.531Z,135.9024
2023-03-31T05:21:59.830Z,146.8537
2023-03-31T05:23:01.007Z,137.1951
2023-03-31T05:24:02.275Z,163.4878
2023-03-31T05:25:03.470Z,195.2439
2023-03-31T05:26:04.944Z,229.5610
2023-03-31T05:27:04.986Z,253.7750
2023-03-31T05:28:06.120Z,275.3903
2023-03-31T05:29:07.400Z,280.2683
2023-03-31T05:30:08.710Z,278.7805
2023-03-31T05:31:09.944Z,255.5610
2023-03-31T05:32:11.170Z,247.6585
2023-03-31T05:33:12.549Z,276.1219
2023-03-31T05:34:13.587Z,304.0000
2023-03-31T05:35:14.679Z,289.4390
2023-03-31T05:36:15.542Z,239.6500
2023-03-31T05:37:16.858Z,226.0732
2023-03-31T05:38:18.108Z,229.6829
2023-03-31T05:39:19.324Z,273.8293
2023-03-31T05:40:20.495Z,284.9756
2023-03-31T05:41:21.581Z,287.3903
2023-03-31T05:42:22.829Z,285.1951
2023-03-31T05:43:24.099Z,270.5610
2023-03-31T05:44:25.249Z,286.5854
2023-03-31T05:45:26.446Z,321.4878
2023-03-31T05:46:27.940Z,372.3171
2023-03-31T05:47:29.390Z,430.1219
2023-03-31T05:48:30.436Z,406.8293
2023-03-31T05:49:31.590Z,394.7073
2023-03-31T05:50:32.837Z,426.4390
2023-03-31T05:51:34.143Z,481.7805
2023-03-31T05:52:35.417Z,461.0244
2023-03-31T05:53:36.693Z,596.3903
2023-03-31T05:54:37.900Z,784.3171
2023-03-31T05:55:38.973Z,1118.1219
2023-03-31T05:56:40.189Z,1289.7561
2023-03-31T05:57:41.581Z,1816.9025
2023-03-31T05:58:42.878Z,2002.0731
2023-03-31T05:59:44.249Z,2103.4146
2023-03-31T06:00:45.516Z,2200.1221
2023-03-31T06:01:46.621Z,2536.4736
2023-03-31T06:02:46.848Z,4280.0249
2023-03-31T06:03:47.100Z,4879.8501
2023-03-31T06:04:47.107Z,4332.9751
2023-03-31T06:05:48.357Z,3577.6099
2023-03-31T06:06:49.551Z,2982.7561
2023-03-31T06:07:50.723Z,2880.6099
2023-03-31T06:08:52.065Z,3025.5366
2023-03-31T06:09:53.292Z,3300.2439
2023-03-31T06:10:54.420Z,3227.2683
2023-03-31T06:11:55.751Z,3007.2927
2023-03-31T06:12:56.987Z,2422.3416
2023-03-31T06:13:58.109Z,1913.8049
2023-03-31T06:14:59.283Z,2245.3901
2023-03-31T06:16:00.661Z,2438.7561
2023-03-31T06:17:01.992Z,2303.5366
2023-03-31T06:18:02.115Z,2102.9231
2023-03-31T06:19:03.338Z,2128.0488
2023-03-31T06:20:13.110Z,2749.7073
2023-03-31T06:21:06.035Z,3471.0271
2023-03-31T06:22:06.216Z,3525.3000
2023-03-31T06:23:07.406Z,3799.5122
2023-03-31T06:24:08.628Z,4588.3413
2023-03-31T06:25:09.936Z,5631.1709
2023-03-31T06:26:11.306Z,6351.2163
2023-03-31T06:27:12.697Z,6475.1709
2023-03-31T06:28:14.036Z,6193.8291
2023-03-31T06:29:15.270Z,6088.7319
2023-03-31T06:30:16.595Z,4917.0000
2023-03-31T06:31:18.017Z,4571.6343
2023-03-31T06:32:19.166Z,6053.6587
2023-03-31T06:33:20.520Z,6787.2197
2023-03-31T06:34:21.827Z,6792.5854
2023-03-31T06:35:23.241Z,8161.3901
2023-03-31T06:36:24.539Z,9168.0244
2023-03-31T06:37:25.925Z,9817.8047
2023-03-31T06:38:27.267Z,10489.3174
2023-03-31T06:39:28.431Z,11062.6338
2023-03-31T06:40:29.728Z,11682.9512
2023-03-31T06:41:31.042Z,12258.5117
2023-03-31T06:42:32.504Z,12514.3418
2023-03-31T06:43:32.525Z,12165.5254
2023-03-31T06:44:33.846Z,11829.5605
2023-03-31T06:45:35.059Z,11483.1221
2023-03-31T06:46:35.545Z,11427.9502
2023-03-31T06:47:35.557Z,11573.2002
2023-03-31T06:48:35.659Z,11930.5752
2023-03-31T06:49:36.825Z,12352.4150
2023-03-31T06:50:38.166Z,12680.5117
2023-03-31T06:51:39.565Z,12843.8779
2023-03-31T06:52:40.971Z,12869.8291
2023-03-31T06:53:42.313Z,12723.6826
2023-03-31T06:54:43.624Z,12431.5850
2023-03-31T06:55:45.097Z,12289.2197
2023-03-31T06:56:45.482Z,12345.9248
2023-03-31T06:57:45.617Z,12553.9004
2023-03-31T06:58:45.933Z,12227.1748
2023-03-31T06:59:47.249Z,10928.8047
2023-03-31T07:00:48.437Z,9190.9023
2023-03-31T07:01:49.044Z,7876.7749
2023-03-31T07:02:49.192Z,7068.5752
2023-03-31T07:03:49.614Z,6883.0249
2023-03-31T07:04:49.576Z,6521.8750
2023-03-31T07:14:59.719Z,4075.1951
2023-03-31T07:29:15.872Z,14277.6582
2023-03-31T07:40:26.303Z,12464.4150
2023-03-31T07:41:26.411Z,13048.5273
2023-03-31T07:42:27.830Z,13502.3662
2023-03-31T07:43:29.211Z,13443.6670
2023-03-31T07:44:30.773Z,13868.8779
2023-03-31T07:45:31.989Z,14287.2686
2023-03-31T07:46:32.249Z,14326.5498
2023-03-31T07:47:32.461Z,14386.0752
2023-03-31T07:48:32.517Z,14581.7002
2023-03-31T07:49:33.783Z,15158.3662
2023-03-31T07:50:35.125Z,16309.8047
2023-03-31T07:51:35.129Z,17315.9492
2023-03-31T07:52:36.575Z,17481.6348
2023-03-31T07:53:37.948Z,17123.9277
2023-03-31T07:54:39.316Z,16682.6836
2023-03-31T07:55:40.492Z,15791.9023
2023-03-31T07:56:41.847Z,14714.3418
2023-03-31T07:57:42.045Z,11900.7998
2023-03-31T08:49:10.480Z,8734.7500
2023-03-31T08:51:04.800Z,11862.2197
2023-03-31T08:52:05.867Z,11767.9512
2023-03-31T08:53:06.638Z,10764.1709
2023-03-31T08:54:07.120Z,10244.4883
2023-03-31T08:55:07.721Z,8447.8779
2023-03-31T08:56:08.465Z,7348.3413
2023-03-31T08:57:09.320Z,6874.1709
2023-03-31T08:58:10.658Z,6994.3076
2023-03-31T08:59:11.275Z,8100.3413
2023-03-31T09:00:12.342Z,10149.0977
2023-03-31T09:01:13.639Z,11921.9512
2023-03-31T09:02:15.030Z,10212.5762
2023-03-31T09:03:15.339Z,11093.6152
2023-03-31T09:04:16.224Z,13962.6582
2023-03-31T09:05:17.415Z,14392.3418
2023-03-31T09:06:18.583Z,12224.4863
2023-03-31T09:07:19.167Z,10962.3662
2023-03-31T09:08:19.596Z,11319.3418
2023-03-31T09:09:20.147Z,11782.4150
2023-03-31T09:10:20.717Z,12524.9023
2023-03-31T09:11:21.253Z,12989.0488
2023-03-31T09:12:21.856Z,10812.6338
2023-03-31T09:17:47.120Z,4782.3999
2023-03-31T09:18:48.129Z,6031.5117
2023-03-31T09:19:48.177Z,5864.1777
2023-03-31T09:20:48.401Z,5978.8442
2023-03-31T09:21:48.575Z,6459.9556
2023-03-31T09:22:49.843Z,7770.8696
2023-03-31T09:23:51.081Z,8242.2178
2023-03-31T09:24:51.335Z,6925.6890
2023-03-31T09:25:51.481Z,5694.1777
2023-03-31T09:26:52.608Z,5644.6304
2023-03-31T09:27:52.702Z,6430.1333
2023-03-31T09:28:52.800Z,7000.9556
2023-03-31T09:29:53.962Z,6694.0000
2023-03-31T09:30:54.016Z,6628.2446
2023-03-31T09:31:54.345Z,6067.9775
2023-03-31T09:32:54.321Z,6811.0000
2023-03-31T09:33:54.708Z,7519.9331
2023-03-31T09:34:56.118Z,9667.4346
2023-03-31T09:35:56.324Z,9599.7861
2023-03-31T09:36:56.910Z,7158.5776
2023-03-31T09:37:58.251Z,7658.3477
2023-03-31T09:38:59.544Z,8116.5435
2023-03-31T09:42:01.179Z,10709.6592
2023-03-31T09:43:01.244Z,13640.1338
2023-03-31T09:44:01.343Z,14659.2002
2023-03-31T09:45:02.588Z,13933.7607
2023-03-31T09:46:09.612Z,13158.5381
2023-03-31T09:47:04.662Z,11347.5605
2023-03-31T09:48:05.000Z,12311.0889
2023-03-31T09:49:05.102Z,11528.6885
2023-03-31T09:50:05.730Z,11455.4639
2023-03-31T09:51:05.836Z,15258.4668
2023-03-31T09:52:05.946Z,15939.2002
2023-03-31T09:53:06.658Z,13488.8633
2023-03-31T09:54:06.870Z,15951.2441
2023-03-31T09:55:07.164Z,16539.2227
2023-03-31T09:56:07.465Z,16668.5156
2023-03-31T09:57:08.375Z,14874.5996
2023-03-31T09:58:08.923Z,14934.3330
2023-03-31T09:59:08.941Z,14206.6670
2023-03-31T10:00:09.077Z,12956.8887
2023-03-31T10:01:11.563Z,12910.9131
2023-03-31T10:02:12.388Z,12330.7109
2023-03-31T10:03:13.560Z,10942.8223
2023-03-31T10:04:15.611Z,11211.2959
2023-03-31T10:05:14.623Z,12354.5908
2023-03-31T10:06:14.786Z,11605.0225
2023-03-31T10:07:14.875Z,10705.0225
2023-03-31T10:08:15.036Z,9071.3115
2023-03-31T10:09:15.151Z,8846.7334
2023-03-31T10:10:17.106Z,11397.1113
2023-03-31T10:11:17.474Z,13238.4893
2023-03-31T10:12:17.507Z,13064.5557
2023-03-31T10:13:17.664Z,11357.2227
2023-03-31T10:14:18.917Z,8596.6953
2023-03-31T10:15:19.089Z,8167.6221
2023-03-31T10:16:19.372Z,9335.0000
2023-03-31T10:17:19.406Z,9732.6670
2023-03-31T10:18:20.422Z,10057.4707
2023-03-31T10:19:20.717Z,10472.1553
2023-03-31T10:20:20.734Z,11007.4443
2023-03-31T10:21:21.558Z,11865.7998
2023-03-31T10:22:23.011Z,11434.8916
2023-03-31T10:23:23.593Z,10956.8447
2023-03-31T10:24:23.700Z,14687.8447
2023-03-31T10:25:23.723Z,13666.9336
2023-03-31T10:26:23.806Z,11378.7334
2023-03-31T10:27:23.952Z,16146.9775
2023-03-31T10:28:25.243Z,18622.1309
2023-03-31T10:29:25.314Z,17032.4883
2023-03-31T10:30:25.502Z,11199.9551
2023-03-31T10:31:26.206Z,10585.7109
2023-03-31T10:32:27.031Z,13404.8662
2023-03-31T10:33:27.435Z,12821.2285
2023-03-31T10:34:27.539Z,9253.8447
2023-03-31T10:35:27.658Z,7913.1113
2023-03-31T10:36:27.788Z,10700.5996
2023-03-31T10:37:28.032Z,6742.9111
2023-03-31T10:38:28.067Z,6133.3721
2023-03-31T10:39:29.336Z,7068.9565
2023-03-31T10:40:29.517Z,4946.9111
2023-03-31T10:41:30.428Z,3755.7334
2023-03-31T10:42:30.479Z,4598.3779
2023-03-31T10:43:30.605Z,4392.2002
2023-03-31T10:44:30.662Z,4258.9556
2023-03-31T10:45:37.753Z,4022.1221
2023-03-31T10:46:32.419Z,3152.8538
2023-03-31T10:47:32.813Z,2844.3333
2023-03-31T10:48:33.206Z,2253.3555
2023-03-31T10:49:33.349Z,1887.1555
2023-03-31T10:50:34.028Z,3845.2273
2023-03-31T10:51:34.962Z,7249.1396
2023-03-31T10:52:35.126Z,8966.5781
2023-03-31T10:53:35.398Z,8703.0449
2023-03-31T10:54:35.534Z,9869.5107
2023-03-31T10:55:36.808Z,13470.4346
2023-03-31T10:56:36.939Z,10734.4668
2023-03-31T10:57:37.479Z,5692.0908
2023-03-31T10:58:37.470Z,4659.0225
2023-03-31T10:59:38.593Z,3733.6580
2023-03-31T11:00:40.035Z,4357.5654
2023-03-31T11:01:40.140Z,4069.5112
2023-03-31T11:03:40.720Z,1921.2000
2023-03-31T11:04:41.509Z,1591.6888
2023-03-31T11:05:41.658Z,2124.8667
2023-03-31T11:06:41.674Z,3370.0667
2023-03-31T11:07:41.814Z,5360.3999
2023-03-31T11:08:43.289Z,6857.0654
2023-03-31T11:09:43.284Z,5897.6445
2023-03-31T11:10:43.489Z,8840.3555
2023-03-31T11:11:44.905Z,18831.4355
2023-03-31T11:12:46.141Z,18105.8262
2023-03-31T11:13:46.201Z,18027.2227
2023-03-31T11:14:46.320Z,17900.8008
2023-03-31T11:15:47.667Z,17281.4785
2023-03-31T11:16:48.407Z,18324.6895
2023-03-31T11:17:49.089Z,16541.6660
2023-03-31T11:18:49.417Z,16237.1553
2023-03-31T11:19:49.632Z,16464.5781
2023-03-31T11:20:51.077Z,12598.2041
2023-03-31T11:21:51.091Z,9660.5996
2023-03-31T11:22:51.355Z,11259.9531
2023-03-31T11:23:52.772Z,13878.5439
2023-03-31T11:24:54.030Z,14907.2822
2023-03-31T11:25:54.296Z,12185.2891
2023-03-31T11:26:54.512Z,10233.0449
2023-03-31T11:27:54.638Z,10474.6445
2023-03-31T11:28:54.867Z,11332.3330
2023-03-31T11:29:54.887Z,11245.0449
2023-03-31T11:30:55.164Z,9853.2002
2023-03-31T11:31:55.828Z,9088.2666
2023-03-31T11:32:56.089Z,9431.5107
2023-03-31T11:33:56.342Z,8632.8662
2023-03-31T11:34:56.581Z,7906.1113
2023-03-31T11:35:56.624Z,6741.8223
2023-03-31T11:36:56.884Z,6211.0444
2023-03-31T11:37:57.182Z,6386.3999
2023-03-31T11:38:57.237Z,6123.1113
2023-03-31T11:39:57.441Z,5724.9775
2023-03-31T11:40:57.431Z,5305.8887
2023-03-31T11:41:57.566Z,4886.9331
2023-03-31T11:42:57.622Z,5204.0225
2023-03-31T11:43:57.683Z,6503.0000
2023-03-31T11:44:57.910Z,9906.7559
2023-03-31T11:45:58.206Z,13380.1113
2023-03-31T11:46:58.945Z,13726.5557
2023-03-31T11:47:59.276Z,14452.4443
2023-03-31T11:49:00.472Z,12415.5908
2023-03-31T11:50:00.486Z,13108.8887
2023-03-31T11:51:00.702Z,12704.4004
2023-03-31T11:52:00.705Z,15713.5107
2023-03-31T11:53:00.854Z,16017.7109
2023-03-31T11:54:00.977Z,13630.8447
2023-03-31T11:55:03.050Z,10924.4893
2023-03-31T11:56:01.437Z,8766.6045
2023-03-31T11:57:01.675Z,7701.1558
2023-03-31T11:58:02.120Z,6619.8887
2023-03-31T11:59:02.398Z,6204.0000
2023-03-31T12:00:02.586Z,6249.2002
2023-03-31T12:01:03.644Z,6126.5117
2023-03-31T12:02:04.329Z,6095.0889
2023-03-31T12:03:04.673Z,5205.3335
2023-03-31T12:04:04.829Z,5129.0000
2023-03-31T12:05:05.031Z,5025.1333
2023-03-31T12:06:06.135Z,3387.5779
2023-03-31T12:07:06.351Z,1998.0682
2023-03-31T12:08:06.397Z,2707.0444
2023-03-31T12:09:06.621Z,4012.9556
2023-03-31T12:10:06.995Z,3087.0222
2023-03-31T12:11:07.075Z,3709.3110
2023-03-31T12:12:07.291Z,4669.5557
2023-03-31T12:13:07.429Z,5962.2002
2023-03-31T12:14:07.612Z,5820.2666
2023-03-31T12:15:07.867Z,8376.3555
2023-03-31T12:16:08.326Z,11691.7773
2023-03-31T12:17:08.587Z,9482.1592
2023-03-31T12:18:08.980Z,4924.7778
2023-03-31T12:19:09.696Z,2393.7046
2023-03-31T12:20:10.058Z,1538.1777
2023-03-31T12:21:10.217Z,1106.9111
2023-03-31T12:22:10.481Z,942.2000
2023-03-31T12:23:10.783Z,945.3778
2023-03-31T12:24:10.915Z,990.3778
2023-03-31T12:25:11.156Z,1520.1777
2023-03-31T12:26:11.378Z,2801.2222
2023-03-31T12:27:11.457Z,4259.0889
2023-03-31T12:28:12.271Z,6173.5332
2023-03-31T12:29:12.350Z,7904.2222
2023-03-31T12:30:12.586Z,8287.8223
2023-03-31T12:31:13.008Z,9023.7559
2023-03-31T12:32:13.773Z,11121.7559
2023-03-31T12:33:14.266Z,19743.9102
2023-03-31T12:34:14.523Z,130427.1797
2023-03-31T12:35:14.602Z,154735.2188
2023-03-31T12:36:15.108Z,155820.5781
2023-03-31T12:37:15.114Z,153478.1719
2023-03-31T12:38:15.331Z,155716.6719
2023-03-31T12:39:15.522Z,125733.2891
2023-03-31T12:40:15.603Z,137785.2656
2023-03-31T12:41:15.865Z,79112.3984
2023-03-31T12:42:16.145Z,67616.6641
2023-03-31T12:43:16.373Z,31442.2676
2023-03-31T12:44:16.592Z,19819.5117
2023-03-31T12:45:16.680Z,22904.5996
2023-03-31T12:46:17.027Z,24527.2676
2023-03-31T12:47:17.669Z,29569.8223
2023-03-31T12:48:17.858Z,23527.2676
2023-03-31T12:49:18.985Z,20506.5352
2023-03-31T12:50:19.162Z,18301.6895
2023-03-31T12:51:19.290Z,18326.9336
2023-03-31T12:52:19.445Z,15272.2002
2023-03-31T12:53:19.730Z,19213.9551
2023-03-31T12:54:19.883Z,19631.0000
2023-03-31T12:55:20.174Z,17505.0215
2023-03-31T12:56:20.243Z,17726.5547
2023-03-31T12:57:20.645Z,17240.9551
2023-03-31T12:58:20.943Z,24081.4453
2023-03-31T12:59:22.149Z,18447.9062
2023-03-31T13:00:22.358Z,15313.8447
2023-03-31T13:01:23.422Z,17877.8008
2023-03-31T13:02:24.105Z,22699.3555
2023-03-31T13:03:24.396Z,25944.8184
2023-03-31T13:04:24.539Z,20484.9297
2023-03-31T13:05:24.750Z,21763.7324
2023-03-31T13:06:25.076Z,29649.6445
2023-03-31T13:07:28.451Z,30532.7500
2023-03-31T13:08:25.817Z,16171.9043
2023-03-31T13:09:26.066Z,14480.6221
2023-03-31T13:10:26.324Z,13800.7773
2023-03-31T13:11:26.768Z,13376.1777
2023-03-31T13:12:26.997Z,12584.3330
2023-03-31T13:13:27.045Z,11583.7559
2023-03-31T13:14:28.156Z,10709.6943
2023-03-31T13:15:28.432Z,10181.1113
2023-03-31T13:16:28.787Z,9854.6445
2023-03-31T13:17:29.684Z,9556.7383
2023-03-31T13:18:30.330Z,8915.5781
2023-03-31T13:19:30.765Z,7651.6665
2023-03-31T13:20:31.568Z,5827.9331
2023-03-31T13:21:31.692Z,4653.0444
2023-03-31T13:22:32.336Z,4419.5332
2023-03-31T13:23:32.602Z,3438.2666
2023-03-31T13:24:32.645Z,2224.5334
2023-03-31T13:25:33.065Z,1346.4222
2023-03-31T13:26:33.352Z,1780.3334
2023-03-31T13:27:34.360Z,3121.9319
2023-03-31T13:28:34.888Z,2624.3333
2023-03-31T13:29:35.343Z,2072.6223
2023-03-31T13:30:35.428Z,2434.8223
2023-03-31T13:31:35.773Z,4029.6445
2023-03-31T13:32:36.298Z,3460.0667
2023-03-31T13:33:36.709Z,2987.4666
2023-03-31T13:34:36.957Z,3480.2222
2023-03-31T13:35:37.146Z,4105.3110
2023-03-31T13:36:38.279Z,4389.1333
2023-03-31T13:37:38.567Z,4455.5557
2023-03-31T13:38:38.589Z,4901.2666
2023-03-31T13:39:38.915Z,4147.9331
2023-03-31T13:40:39.011Z,4101.5332
2023-03-31T13:41:39.473Z,5958.5112
2023-03-31T13:42:39.789Z,6378.9775
2023-03-31T13:43:40.069Z,5863.7554
2023-03-31T13:44:40.813Z,5767.5454
2023-03-31T13:45:41.564Z,5903.9556
2023-03-31T13:46:41.896Z,6285.2271
2023-03-31T13:47:42.557Z,6875.4888
2023-03-31T13:48:43.186Z,7383.8887
2023-03-31T13:49:43.267Z,7777.0669
2023-03-31T13:50:43.586Z,8187.6890
2023-03-31T13:51:43.892Z,8781.7109
2023-03-31T13:52:43.984Z,9959.7725
2023-03-31T13:53:44.324Z,11511.7559
2023-03-31T13:54:44.421Z,12971.0889
2023-03-31T13:55:44.742Z,13885.8223
2023-03-31T13:56:45.425Z,14554.4219
2023-03-31T13:57:45.728Z,15173.3555
2023-03-31T13:58:46.082Z,16873.1387
2023-03-31T13:59:46.480Z,16425.8223
2023-03-31T14:00:46.806Z,20244.0898
2023-03-31T14:01:47.324Z,24899.3770
2023-03-31T14:02:48.149Z,19406.2676
2023-03-31T14:03:49.398Z,20602.7109
2023-03-31T14:04:49.248Z,26134.6133
2023-03-31T14:05:49.662Z,31219.0215
2023-03-31T14:06:50.141Z,39440.6680
2023-03-31T14:07:50.837Z,82875.4766
2023-03-31T14:08:51.015Z,152419.0625
2023-03-31T14:09:51.949Z,69335.7578
2023-03-31T14:10:52.349Z,54735.6680
2023-03-31T14:11:52.696Z,38145.7344
2023-03-31T14:12:53.139Z,52044.6680
2023-03-31T14:13:53.370Z,40810.4219
2023-03-31T14:14:53.803Z,49305.9570
2023-03-31T14:15:54.292Z,44635.0664
2023-03-31T14:16:55.134Z,34647.0898
2023-03-31T14:17:55.655Z,31576.4004
2023-03-31T14:18:56.804Z,28902.5781
2023-03-31T14:19:57.054Z,27606.7266
2023-03-31T14:20:57.706Z,22192.6445
2023-03-31T14:21:58.835Z,24977.2227
2023-03-31T14:22:59.860Z,23810.3730
2023-03-31T14:24:00.641Z,30299.6230
2023-03-31T14:25:01.112Z,51118.8008
2023-03-31T14:26:01.569Z,36165.7773
2023-03-31T14:27:02.115Z,28531.9102
2023-03-31T14:28:02.351Z,16187.8447
2023-03-31T14:29:02.784Z,14386.9336
2023-03-31T14:30:03.503Z,13983.2441
2023-03-31T14:31:03.710Z,20705.4668
2023-03-31T14:32:04.582Z,15580.0449
2023-03-31T14:33:06.374Z,15660.6973
2023-03-31T14:34:06.542Z,59077.2891
2023-03-31T14:35:07.086Z,41836.9336
2023-03-31T14:36:07.571Z,91675.0469
2023-03-31T14:37:08.270Z,20525.5117
2023-03-31T14:38:08.753Z,29496.9102
2023-03-31T14:39:09.167Z,36987.6875
2023-03-31T14:40:09.440Z,27973.6660
2023-03-31T14:41:10.109Z,18300.5996
2023-03-31T14:42:10.970Z,13531.5332
2023-03-31T14:43:11.134Z,15983.6670
2023-03-31T14:44:11.501Z,15775.3115
2023-03-31T14:45:11.707Z,26926.4219
2023-03-31T14:46:12.179Z,15052.2227
2023-03-31T14:47:12.891Z,22715.8438
2023-03-31T14:48:13.208Z,18018.2441
2023-03-31T14:49:13.625Z,10939.2227
2023-03-31T14:50:14.020Z,8157.5776
2023-03-31T14:51:14.270Z,6747.3110
2023-03-31T14:52:14.793Z,6426.2666
2023-03-31T14:53:15.025Z,5800.9556
2023-03-31T14:54:15.371Z,4131.2666
2023-03-31T14:55:15.881Z,3015.6445
2023-03-31T14:56:16.579Z,2252.3572
2023-03-31T14:57:17.021Z,1846.9111
2023-03-31T14:58:17.406Z,1534.2222
2023-03-31T14:59:18.119Z,1133.4889
2023-03-31T15:00:18.640Z,1050.0000
2023-03-31T15:01:19.476Z,872.3778
2023-03-31T15:02:19.819Z,742.2000
2023-03-31T15:03:20.340Z,672.5778
2023-03-31T15:04:31.931Z,702.0667
2023-03-31T15:05:25.859Z,799.8889